Time;durP1;ratioP1;P1;durP2;ratioP2;P2;SDS_P1;SDS_P2;PMS_P1;PMS_P2;Temp;Humidity;BMP_temperature;BMP_pressure;BME280_temperature;BME280_humidity;BME280_pressure;Samples;Min_cycle;Max_cycle;Signal;HPM_P1;HPM_P2
2023/02/11 00:00:54;;;;;;;;;;;;;;;9.90;nan;102790.56;4965436;28;20016;-85
2023/02/11 00:03:19;;;;;;;;;;;;;;;9.88;nan;102836.25;4967253;28;19968;-85
2023/02/11 00:05:45;;;;;;;;;;;;;;;9.94;nan;102830.13;4966894;28;19937;-86
2023/02/11 00:08:15;;;;;;;;;;;;;;;9.99;nan;102816.16;4965892;28;19926;-85
2023/02/11 00:10:41;;;;;;;;;;;;;;;9.98;nan;102814.50;4967039;28;20364;-85
2023/02/11 00:13:06;;;;;;;;;;;;;;;9.97;nan;102810.16;4968384;28;20001;-84
2023/02/11 00:15:31;;;;;;;;;;;;;;;10.06;nan;102800.16;4969551;28;20255;-85
2023/02/11 00:17:57;;;;;;;;;;;;;;;10.05;nan;102793.94;4965235;28;19922;-85
2023/02/11 00:20:22;;;;;;;;;;;;;;;10.00;nan;102786.50;4965534;28;19926;-86
2023/02/11 00:22:48;;;;;;;;;;;;;;;10.01;nan;102768.56;4964800;28;20268;-85
2023/02/11 00:25:13;;;;;;;;;;;;;;;10.05;nan;102744.91;4965150;28;20416;-86
2023/02/11 00:27:38;;;;;;;;;;;;;;;10.05;nan;102734.19;4964989;28;19926;-84
2023/02/11 00:30:04;;;;;;;;;;;;;;;10.04;nan;102711.94;4965073;28;20098;-85
2023/02/11 00:32:29;;;;;;;;;;;;;;;10.00;nan;102722.22;4965712;28;19922;-86
2023/02/11 00:34:54;;;;;;;;;;;;;;;10.00;nan;102730.25;4965140;28;20024;-86
2023/02/11 00:37:20;;;;;;;;;;;;;;;9.99;nan;102735.81;4964695;28;20390;-85
2023/02/11 00:39:46;;;;;;;;;;;;;;;10.06;nan;102746.59;4964784;28;20414;-85
2023/02/11 00:42:13;;;;;;;;;;;;;;;10.00;nan;102740.97;4965202;28;19922;-85
2023/02/11 00:44:41;;;;;;;;;;;;;;;9.99;nan;102752.72;4964005;28;19965;-85
2023/02/11 00:47:06;;;;;;;;;;;;;;;10.07;nan;102735.69;4961583;28;19922;-85
2023/02/11 00:49:31;;;;;;;;;;;;;;;10.12;nan;102722.50;4962559;28;19925;-86
2023/02/11 00:51:57;;;;;;;;;;;;;;;10.09;nan;102711.38;4963726;28;19962;-85
2023/02/11 00:54:22;;;;;;;;;;;;;;;10.12;nan;102698.41;4964419;28;19930;-84
2023/02/11 00:56:47;;;;;;;;;;;;;;;10.10;nan;102689.75;4947089;28;20008;-86
2023/02/11 00:59:13;;;;;;;;;;;;;;;10.10;nan;102707.66;4964744;28;19918;-85
2023/02/11 01:01:38;;;;;;;;;;;;;;;10.06;nan;102735.88;4965318;28;19944;-84
2023/02/11 01:04:04;;;;;;;;;;;;;;;10.12;nan;102727.03;4965854;28;19953;-85
2023/02/11 01:06:29;;;;;;;;;;;;;;;10.20;nan;102735.75;4966637;28;19932;-84
2023/02/11 01:08:55;;;;;;;;;;;;;;;10.27;nan;102744.69;4964279;28;19937;-85
2023/02/11 01:11:23;;;;;;;;;;;;;;;10.26;nan;102769.81;4960248;28;19918;-85
2023/02/11 01:13:48;;;;;;;;;;;;;;;10.32;nan;102768.22;4956548;28;21033;-84
2023/02/11 01:16:14;;;;;;;;;;;;;;;10.42;nan;102762.50;4964631;28;19929;-84
2023/02/11 01:18:41;;;;;;;;;;;;;;;10.47;nan;102749.31;4964295;28;19918;-86
2023/02/11 01:21:07;;;;;;;;;;;;;;;10.55;nan;102744.63;4965430;28;19933;-86
2023/02/11 01:23:32;;;;;;;;;;;;;;;10.51;nan;102740.69;4963113;28;19918;-85
2023/02/11 01:25:58;;;;;;;;;;;;;;;10.46;nan;102735.09;4964226;28;19929;-85
2023/02/11 01:28:24;;;;;;;;;;;;;;;10.51;nan;102743.38;4964718;28;19926;-85
2023/02/11 01:30:50;;;;;;;;;;;;;;;10.50;nan;102739.03;4963483;28;19922;-86
2023/02/11 01:33:15;;;;;;;;;;;;;;;10.52;nan;102720.06;4964294;28;19925;-85
2023/02/11 01:35:41;;;;;;;;;;;;;;;10.59;nan;102705.69;4964809;28;19981;-85
2023/02/11 01:38:07;;;;;;;;;;;;;;;10.48;nan;102708.09;4962167;28;20284;-85
2023/02/11 01:40:32;;;;;;;;;;;;;;;10.47;nan;102691.19;4966379;28;19961;-85
2023/02/11 01:42:58;;;;;;;;;;;;;;;10.45;nan;102709.34;4965596;28;20015;-85
2023/02/11 01:45:44;;;;;;;;;;;;;;;10.39;nan;102696.72;4966213;28;19926;-85
2023/02/11 01:48:11;;;;;;;;;;;;;;;10.43;nan;102711.38;4965253;28;19957;-86
2023/02/11 01:50:38;;;;;;;;;;;;;;;10.36;nan;102723.91;4947991;28;20298;-85
2023/02/11 01:57:20;;;;;;;;;;;;;;;10.42;nan;102731.16;4965706;28;19997;-85
2023/02/11 01:58:35;;;;;;;;;;;;;;;10.41;nan;102721.47;4964556;28;19968;-85
2023/02/11 02:01:03;;;;;;;;;;;;;;;10.42;nan;102708.91;4964357;28;19950;-85
2023/02/11 02:03:29;;;;;;;;;;;;;;;10.46;nan;102715.50;4964630;28;19997;-85
2023/02/11 02:06:14;;;;;;;;;;;;;;;10.41;nan;102705.41;4964922;28;19977;-84
2023/02/11 02:08:42;;;;;;;;;;;;;;;10.38;nan;102700.41;4964968;28;20016;-85
2023/02/11 02:11:08;;;;;;;;;;;;;;;10.37;nan;102705.97;4968792;28;19918;-85
2023/02/11 02:13:34;;;;;;;;;;;;;;;10.48;nan;102706.25;4968618;28;20281;-85
2023/02/11 02:16:00;;;;;;;;;;;;;;;10.46;nan;102705.63;4967711;28;19948;-85
2023/02/11 02:18:41;;;;;;;;;;;;;;;10.47;nan;102695.72;4966497;28;19922;-84
2023/02/11 02:21:14;;;;;;;;;;;;;;;10.52;nan;102683.38;4967848;28;20402;-85
2023/02/11 02:23:48;;;;;;;;;;;;;;;10.50;nan;102690.78;4965769;28;19977;-85
2023/02/11 02:26:19;;;;;;;;;;;;;;;10.43;nan;102692.63;4953030;28;19918;-85
2023/02/11 02:29:05;;;;;;;;;;;;;;;10.40;nan;102693.00;4966486;28;19918;-85
2023/02/11 02:31:49;;;;;;;;;;;;;;;10.42;nan;102680.25;4968383;28;20319;-85
2023/02/11 02:34:18;;;;;;;;;;;;;;;10.44;nan;102680.88;4969440;28;19926;-85
2023/02/11 02:36:50;;;;;;;;;;;;;;;10.49;nan;102662.34;4968631;28;19941;-85
2023/02/11 02:39:21;;;;;;;;;;;;;;;10.47;nan;102663.56;4965515;28;19968;-85
2023/02/11 02:41:47;;;;;;;;;;;;;;;10.41;nan;102653.63;4968229;28;19950;-85
2023/02/11 02:44:13;;;;;;;;;;;;;;;10.44;nan;102648.72;4967536;28;20206;-86
2023/02/11 02:46:38;;;;;;;;;;;;;;;10.36;nan;102650.72;4966877;28;20356;-85
2023/02/11 02:49:08;;;;;;;;;;;;;;;10.34;nan;102634.03;4950869;28;19918;-85
2023/02/11 02:51:45;;;;;;;;;;;;;;;10.28;nan;102627.63;4969403;28;20166;-85
2023/02/11 02:54:13;;;;;;;;;;;;;;;10.32;nan;102615.47;4968177;28;20028;-86
2023/02/11 02:56:55;;;;;;;;;;;;;;;10.27;nan;102609.91;4966841;28;20300;-85
2023/02/11 02:59:20;;;;;;;;;;;;;;;10.26;nan;102609.09;4968544;28;19957;-85
2023/02/11 03:02:01;;;;;;;;;;;;;;;10.33;nan;102611.78;4966920;28;19977;-85
2023/02/11 03:04:45;;;;;;;;;;;;;;;10.24;nan;102613.00;4967609;28;19926;-85
2023/02/11 03:07:21;;;;;;;;;;;;;;;10.25;nan;102610.13;4966341;28;20372;-85
2023/02/11 03:09:55;;;;;;;;;;;;;;;10.27;nan;102617.94;4956204;28;19922;-86
2023/02/11 03:12:22;;;;;;;;;;;;;;;10.35;nan;102611.56;4967671;28;19969;-85
2023/02/11 03:14:49;;;;;;;;;;;;;;;10.27;nan;102600.03;4966269;28;19973;-85
2023/02/11 03:17:15;;;;;;;;;;;;;;;10.29;nan;102586.41;4968729;28;20372;-85
2023/02/11 03:19:42;;;;;;;;;;;;;;;10.31;nan;102578.19;4965697;28;19922;-85
2023/02/11 03:22:16;;;;;;;;;;;;;;;10.26;nan;102570.75;4971102;28;19918;-85
2023/02/11 03:24:42;;;;;;;;;;;;;;;10.28;nan;102568.69;4970973;28;19918;-85
2023/02/11 03:27:29;;;;;;;;;;;;;;;10.29;nan;102581.06;4971043;28;20324;-86
2023/02/11 03:29:54;;;;;;;;;;;;;;;10.33;nan;102570.75;4975410;28;19953;-84
2023/02/11 03:32:35;;;;;;;;;;;;;;;10.32;nan;102563.75;4973989;28;20372;-86
2023/02/11 03:35:11;;;;;;;;;;;;;;;10.35;nan;102561.50;4969625;28;19928;-85
2023/02/11 03:37:36;;;;;;;;;;;;;;;10.34;nan;102553.66;4974090;28;19933;-85
2023/02/11 03:40:01;;;;;;;;;;;;;;;10.29;nan;102548.91;4968876;28;19918;-84
2023/02/11 03:42:30;;;;;;;;;;;;;;;10.32;nan;102543.13;4975974;28;19965;-85
2023/02/11 03:44:59;;;;;;;;;;;;;;;10.34;nan;102534.91;4968550;28;19937;-84
2023/02/11 03:47:26;;;;;;;;;;;;;;;10.32;nan;102548.50;4971491;28;19914;-84
2023/02/11 03:49:52;;;;;;;;;;;;;;;10.29;nan;102539.03;4969968;28;19918;-85
2023/02/11 03:52:19;;;;;;;;;;;;;;;10.32;nan;102545.00;4971875;28;19918;-84
2023/02/11 03:54:47;;;;;;;;;;;;;;;10.34;nan;102546.44;4971325;28;20518;-84
2023/02/11 03:57:13;;;;;;;;;;;;;;;10.36;nan;102548.91;4970877;28;19972;-84
2023/02/11 03:59:57;;;;;;;;;;;;;;;10.41;nan;102541.94;4971320;28;19922;-84
2023/02/11 04:02:26;;;;;;;;;;;;;;;10.50;nan;102551.44;4971421;28;19948;-84
2023/02/11 04:04:51;;;;;;;;;;;;;;;10.46;nan;102555.53;4969251;28;19918;-85
2023/02/11 04:07:16;;;;;;;;;;;;;;;10.44;nan;102565.66;4969155;28;19918;-84
2023/02/11 04:09:42;;;;;;;;;;;;;;;10.43;nan;102571.22;4967910;28;20561;-84
2023/02/11 04:12:07;;;;;;;;;;;;;;;10.45;nan;102578.03;4965297;28;20285;-84
2023/02/11 04:14:33;;;;;;;;;;;;;;;10.42;nan;102572.25;4967139;28;19930;-84
2023/02/11 04:16:58;;;;;;;;;;;;;;;10.45;nan;102569.97;4971542;28;21880;-84
2023/02/11 04:19:23;;;;;;;;;;;;;;;10.46;nan;102566.25;4970688;28;19918;-85
2023/02/11 04:21:49;;;;;;;;;;;;;;;10.43;nan;102549.78;4969985;28;19956;-84
2023/02/11 04:24:14;;;;;;;;;;;;;;;10.46;nan;102544.00;4969674;28;20444;-84
2023/02/11 04:26:39;;;;;;;;;;;;;;;10.47;nan;102543.81;4970600;28;19926;-83
2023/02/11 04:29:05;;;;;;;;;;;;;;;10.51;nan;102533.50;4969455;28;20004;-83
2023/02/11 04:31:30;;;;;;;;;;;;;;;10.54;nan;102525.03;4974511;28;19918;-84
2023/02/11 04:33:56;;;;;;;;;;;;;;;10.51;nan;102494.13;4971323;28;19984;-84
2023/02/11 04:36:21;;;;;;;;;;;;;;;10.48;nan;102494.53;4973753;28;19933;-85
2023/02/11 04:38:46;;;;;;;;;;;;;;;10.45;nan;102494.94;4972907;28;19918;-84
2023/02/11 04:41:12;;;;;;;;;;;;;;;10.56;nan;102494.31;4978313;28;19917;-83
2023/02/11 04:43:37;;;;;;;;;;;;;;;10.56;nan;102496.16;4966117;28;20005;-84
2023/02/11 04:46:02;;;;;;;;;;;;;;;10.56;nan;102515.75;4970226;28;20307;-84
2023/02/11 04:48:28;;;;;;;;;;;;;;;10.65;nan;102510.22;4967444;28;20017;-84
2023/02/11 04:50:53;;;;;;;;;;;;;;;10.62;nan;102499.91;4970467;28;20393;-84
2023/02/11 04:53:24;;;;;;;;;;;;;;;10.65;nan;102500.31;4970177;28;19922;-84
2023/02/11 04:55:50;;;;;;;;;;;;;;;10.64;nan;102511.25;4968165;28;19929;-84
2023/02/11 04:58:16;;;;;;;;;;;;;;;10.64;nan;102489.81;4976308;28;19918;-84
2023/02/11 05:00:41;;;;;;;;;;;;;;;10.69;nan;102490.81;4975058;28;19932;-84
2023/02/11 05:03:09;;;;;;;;;;;;;;;10.75;nan;102487.31;4969485;28;19926;-84
2023/02/11 05:05:36;;;;;;;;;;;;;;;10.74;nan;102485.66;4969742;28;20336;-84
2023/02/11 05:08:02;;;;;;;;;;;;;;;10.71;nan;102487.94;4969151;28;19924;-84
2023/02/11 05:10:27;;;;;;;;;;;;;;;10.76;nan;102496.19;4965362;28;19918;-84
2023/02/11 05:12:53;;;;;;;;;;;;;;;10.77;nan;102503.19;4967082;28;19997;-83
2023/02/11 05:15:18;;;;;;;;;;;;;;;10.77;nan;102513.91;4964581;28;20344;-85
2023/02/11 05:17:43;;;;;;;;;;;;;;;10.79;nan;102499.28;4969914;28;19918;-83
2023/02/11 05:20:09;;;;;;;;;;;;;;;10.86;nan;102499.28;4970503;28;19945;-85
2023/02/11 05:22:34;;;;;;;;;;;;;;;10.89;nan;102514.94;4970010;28;19926;-85
2023/02/11 05:25:00;;;;;;;;;;;;;;;10.84;nan;102504.03;4970625;28;20050;-84
2023/02/11 05:27:25;;;;;;;;;;;;;;;10.84;nan;102504.03;4970068;28;19969;-84
2023/02/11 05:29:50;;;;;;;;;;;;;;;10.84;nan;102499.50;4965384;28;21732;-83
2023/02/11 05:32:16;;;;;;;;;;;;;;;10.87;nan;102482.16;4967031;28;19958;-85
2023/02/11 05:34:41;;;;;;;;;;;;;;;10.88;nan;102473.06;4976865;28;19972;-84
2023/02/11 05:37:06;;;;;;;;;;;;;;;10.90;nan;102462.97;4971665;28;19926;-84
2023/02/11 05:39:32;;;;;;;;;;;;;;;10.90;nan;102471.00;4967040;28;20488;-84
2023/02/11 05:41:57;;;;;;;;;;;;;;;10.92;nan;102463.56;4969871;28;19961;-84
2023/02/11 05:44:23;;;;;;;;;;;;;;;10.94;nan;102460.69;4965231;28;19965;-84
2023/02/11 05:46:48;;;;;;;;;;;;;;;10.98;nan;102454.72;4970074;28;20324;-84
2023/02/11 05:49:15;;;;;;;;;;;;;;;10.98;nan;102473.50;4967071;28;19918;-84
2023/02/11 05:51:40;;;;;;;;;;;;;;;11.07;nan;102479.44;4972145;28;20547;-84
2023/02/11 05:54:05;;;;;;;;;;;;;;;11.05;nan;102500.28;4970940;28;19957;-85
2023/02/11 05:56:31;;;;;;;;;;;;;;;11.02;nan;102495.34;4956545;28;19922;-85
2023/02/11 05:58:57;;;;;;;;;;;;;;;11.01;nan;102497.22;4967512;28;19918;-84
2023/02/11 06:01:23;;;;;;;;;;;;;;;11.12;nan;102487.69;4967849;28;20316;-85
2023/02/11 06:03:50;;;;;;;;;;;;;;;11.13;nan;102492.88;4965479;28;20009;-84
2023/02/11 06:06:16;;;;;;;;;;;;;;;11.11;nan;102489.53;4967532;28;19922;-84
2023/02/11 06:08:41;;;;;;;;;;;;;;;11.14;nan;102489.16;4966460;28;21979;-84
2023/02/11 06:11:07;;;;;;;;;;;;;;;11.16;nan;102497.81;4968043;28;19937;-84
2023/02/11 06:13:32;;;;;;;;;;;;;;;11.11;nan;102494.09;4967584;28;19925;-85
2023/02/11 06:15:59;;;;;;;;;;;;;;;11.13;nan;102486.66;4968854;28;19922;-84
2023/02/11 06:18:24;;;;;;;;;;;;;;;11.24;nan;102477.97;4963193;28;20365;-84
2023/02/11 06:20:49;;;;;;;;;;;;;;;11.28;nan;102473.00;4963618;28;19918;-84
2023/02/11 06:23:15;;;;;;;;;;;;;;;11.29;nan;102478.16;4962806;28;19919;-84
2023/02/11 06:25:40;;;;;;;;;;;;;;;11.35;nan;102479.19;4965952;28;20829;-84
2023/02/11 06:28:06;;;;;;;;;;;;;;;11.30;nan;102468.25;4967836;28;20025;-84
2023/02/11 06:30:32;;;;;;;;;;;;;;;11.38;nan;102471.53;4965593;28;19918;-85
2023/02/11 06:32:57;;;;;;;;;;;;;;;11.27;nan;102469.50;4966959;28;20277;-84
2023/02/11 06:35:22;;;;;;;;;;;;;;;11.27;nan;102465.97;4954492;28;19965;-85
2023/02/11 06:37:48;;;;;;;;;;;;;;;11.26;nan;102470.53;4965001;28;19934;-84
2023/02/11 06:40:14;;;;;;;;;;;;;;;11.32;nan;102476.94;4967305;28;19919;-84
2023/02/11 06:42:39;;;;;;;;;;;;;;;11.33;nan;102467.84;4963250;28;19918;-84
2023/02/11 06:45:07;;;;;;;;;;;;;;;11.26;nan;102469.69;4965755;28;19918;-84
2023/02/11 06:47:33;;;;;;;;;;;;;;;11.28;nan;102473.81;4958039;28;20012;-84
2023/02/11 06:49:58;;;;;;;;;;;;;;;11.28;nan;102464.94;4962560;28;20132;-84
2023/02/11 06:52:24;;;;;;;;;;;;;;;11.30;nan;102442.22;4970619;28;20690;-84
2023/02/11 06:54:49;;;;;;;;;;;;;;;11.26;nan;102432.97;4970209;28;19933;-84
2023/02/11 06:57:14;;;;;;;;;;;;;;;11.22;nan;102433.59;4971265;28;20030;-85
2023/02/11 06:59:40;;;;;;;;;;;;;;;11.25;nan;102436.69;4971072;28;19941;-84
2023/02/11 07:02:05;;;;;;;;;;;;;;;11.31;nan;102421.59;4969810;28;19949;-84
2023/02/11 07:04:31;;;;;;;;;;;;;;;11.37;nan;102412.72;4970238;28;19965;-84
2023/02/11 07:06:56;;;;;;;;;;;;;;;11.37;nan;102410.03;4970343;28;20293;-85
2023/02/11 07:09:21;;;;;;;;;;;;;;;11.38;nan;102422.41;4969884;28;19961;-84
2023/02/11 07:11:47;;;;;;;;;;;;;;;11.41;nan;102419.28;4969426;28;20416;-84
2023/02/11 07:14:12;;;;;;;;;;;;;;;11.42;nan;102412.88;4970633;28;19965;-83
2023/02/11 07:16:37;;;;;;;;;;;;;;;11.41;nan;102419.28;4971367;28;19981;-84
2023/02/11 07:19:03;;;;;;;;;;;;;;;11.39;nan;102411.44;4970318;28;19925;-84
2023/02/11 07:21:28;;;;;;;;;;;;;;;11.38;nan;102414.34;4971322;28;19921;-84
2023/02/11 07:23:54;;;;;;;;;;;;;;;11.47;nan;102429.16;4970793;28;19924;-84
2023/02/11 07:26:21;;;;;;;;;;;;;;;11.40;nan;102439.13;4971726;28;20427;-84
2023/02/11 07:28:47;;;;;;;;;;;;;;;11.45;nan;102444.66;4970727;28;20343;-83
2023/02/11 07:31:18;;;;;;;;;;;;;;;11.52;nan;102456.22;4970806;28;19949;-84
2023/02/11 07:33:44;;;;;;;;;;;;;;;11.53;nan;102449.81;4970450;28;19918;-84
2023/02/11 07:36:11;;;;;;;;;;;;;;;11.53;nan;102460.53;4970906;28;20012;-85
2023/02/11 07:38:36;;;;;;;;;;;;;;;11.58;nan;102457.22;4970383;28;19926;-84
2023/02/11 07:41:03;;;;;;;;;;;;;;;11.64;nan;102453.66;4969676;28;19925;-84
2023/02/11 07:43:29;;;;;;;;;;;;;;;11.68;nan;102461.09;4968334;28;19918;-84
2023/02/11 07:45:54;;;;;;;;;;;;;;;11.73;nan;102458.59;4970142;28;19945;-84
2023/02/11 07:48:20;;;;;;;;;;;;;;;11.79;nan;102457.75;4968761;28;19918;-84
2023/02/11 07:50:45;;;;;;;;;;;;;;;11.81;nan;102452.16;4970214;28;20296;-84
2023/02/11 07:53:10;;;;;;;;;;;;;;;11.82;nan;102451.13;4969351;28;22051;-86
2023/02/11 07:55:36;;;;;;;;;;;;;;;11.87;nan;102461.25;4968276;28;19922;-84
2023/02/11 07:58:01;;;;;;;;;;;;;;;11.90;nan;102469.69;4969573;28;19918;-84
2023/02/11 08:00:26;;;;;;;;;;;;;;;11.91;nan;102463.28;4970228;28;20016;-85
2023/02/11 08:02:52;;;;;;;;;;;;;;;11.92;nan;102475.69;4962176;28;19918;-84
2023/02/11 08:05:17;;;;;;;;;;;;;;;11.99;nan;102481.81;4970204;28;19926;-84
2023/02/11 08:07:42;;;;;;;;;;;;;;;12.00;nan;102466.53;4967887;28;19918;-84
2023/02/11 08:10:08;;;;;;;;;;;;;;;12.06;nan;102463.00;4968898;28;19990;-85
2023/02/11 08:12:36;;;;;;;;;;;;;;;12.12;nan;102462.13;4967530;28;19918;-85
2023/02/11 08:15:02;;;;;;;;;;;;;;;12.09;nan;102459.88;4969523;28;20335;-84
2023/02/11 08:17:27;;;;;;;;;;;;;;;12.13;nan;102450.34;4970746;28;19923;-84
2023/02/11 08:19:52;;;;;;;;;;;;;;;12.10;nan;102442.72;4968157;28;19922;-84
2023/02/11 08:22:18;;;;;;;;;;;;;;;12.11;nan;102463.16;4967248;28;19965;-84
2023/02/11 08:24:43;;;;;;;;;;;;;;;12.13;nan;102466.47;4964630;28;19925;-84
2023/02/11 08:27:08;;;;;;;;;;;;;;;12.13;nan;102461.09;4968160;28;20304;-84
2023/02/11 08:29:34;;;;;;;;;;;;;;;12.13;nan;102461.09;4969087;28;19941;-83
2023/02/11 08:31:59;;;;;;;;;;;;;;;12.16;nan;102455.28;4968828;28;19933;-86
2023/02/11 08:34:24;;;;;;;;;;;;;;;12.24;nan;102468.47;4968552;28;20466;-84
2023/02/11 08:36:50;;;;;;;;;;;;;;;12.28;nan;102469.66;4967941;28;20486;-86
2023/02/11 08:39:19;;;;;;;;;;;;;;;12.23;nan;102466.00;4963406;28;19917;-84
2023/02/11 08:41:47;;;;;;;;;;;;;;;12.23;nan;102460.63;4963108;28;20077;-84
2023/02/11 08:44:12;;;;;;;;;;;;;;;12.27;nan;102451.91;4968259;28;20002;-84
2023/02/11 08:46:38;;;;;;;;;;;;;;;12.34;nan;102458.03;4967788;28;20005;-85
2023/02/11 08:49:03;;;;;;;;;;;;;;;12.42;nan;102456.16;4965546;28;19926;-84
2023/02/11 08:51:30;;;;;;;;;;;;;;;12.35;nan;102467.75;4969871;28;20650;-84
2023/02/11 08:53:56;;;;;;;;;;;;;;;12.40;nan;102459.88;4965162;28;19927;-86
2023/02/11 08:56:22;;;;;;;;;;;;;;;12.39;nan;102465.47;4963441;28;20389;-84
2023/02/11 08:58:48;;;;;;;;;;;;;;;12.45;nan;102466.47;4977385;28;19928;-85
2023/02/11 09:01:15;;;;;;;;;;;;;;;12.48;nan;102452.56;4968650;28;19922;-85
2023/02/11 09:03:40;;;;;;;;;;;;;;;12.50;nan;102466.63;4949474;28;19941;-85
2023/02/11 09:06:06;;;;;;;;;;;;;;;12.46;nan;102482.38;4966736;28;20572;-85
2023/02/11 09:08:36;;;;;;;;;;;;;;;12.53;nan;102485.81;4967169;28;19926;-85
2023/02/11 09:11:09;;;;;;;;;;;;;;;12.57;nan;102496.97;4967861;28;20463;-85
2023/02/11 09:13:35;;;;;;;;;;;;;;;12.53;nan;102515.38;4957403;28;19922;-85
2023/02/11 09:16:01;;;;;;;;;;;;;;;12.55;nan;102509.78;4958709;28;20379;-85
2023/02/11 09:18:30;;;;;;;;;;;;;;;12.57;nan;102510.41;4960252;28;20347;-84
2023/02/11 09:21:06;;;;;;;;;;;;;;;12.66;nan;102503.72;4963954;28;19929;-84
2023/02/11 09:23:33;;;;;;;;;;;;;;;12.69;nan;102514.84;4963697;28;19976;-85
2023/02/11 09:25:59;;;;;;;;;;;;;;;12.64;nan;102500.44;4964042;28;20009;-86
2023/02/11 09:28:24;;;;;;;;;;;;;;;12.63;nan;102498.78;4963862;28;20069;-85
2023/02/11 09:30:50;;;;;;;;;;;;;;;12.67;nan;102499.97;5003008;22;19930;-85
2023/02/11 09:33:15;;;;;;;;;;;;;;;12.66;nan;102501.03;4968784;28;19945;-85
2023/02/11 09:35:40;;;;;;;;;;;;;;;12.65;nan;102515.53;4971526;28;20007;-85
2023/02/11 09:38:06;;;;;;;;;;;;;;;12.69;nan;102524.78;4971093;28;20383;-86
2023/02/11 09:40:32;;;;;;;;;;;;;;;12.68;nan;102526.66;4967106;28;19934;-85
2023/02/11 09:43:11;;;;;;;;;;;;;;;12.70;nan;102521.88;4973549;28;19936;-86
2023/02/11 09:45:36;;;;;;;;;;;;;;;12.73;nan;102517.91;4971997;28;19922;-83
2023/02/11 09:48:21;;;;;;;;;;;;;;;12.71;nan;102528.09;4968270;28;20031;-85
2023/02/11 09:50:49;;;;;;;;;;;;;;;12.73;nan;102515.22;4970603;28;19922;-85
2023/02/11 09:53:25;;;;;;;;;;;;;;;12.73;nan;102504.47;4967756;28;19921;-85
2023/02/11 09:55:55;;;;;;;;;;;;;;;12.81;nan;102498.84;4972552;28;19926;-85
2023/02/11 09:58:23;;;;;;;;;;;;;;;12.77;nan;102496.81;4969421;28;19934;-85
2023/02/11 10:00:48;;;;;;;;;;;;;;;12.80;nan;102491.81;4969021;28;19941;-85
2023/02/11 10:03:33;;;;;;;;;;;;;;;12.80;nan;102483.75;4965103;28;19949;-84
2023/02/11 10:05:58;;;;;;;;;;;;;;;12.76;nan;102493.31;4966123;28;19922;-85
2023/02/11 10:08:23;;;;;;;;;;;;;;;12.81;nan;102489.94;4970465;28;19922;-84
2023/02/11 10:10:52;;;;;;;;;;;;;;;12.78;nan;102485.84;4967831;28;19959;-84
2023/02/11 10:13:36;;;;;;;;;;;;;;;12.82;nan;102480.84;4972317;28;19926;-84
2023/02/11 10:16:19;;;;;;;;;;;;;;;12.95;nan;102453.81;4966398;28;19929;-84
2023/02/11 10:18:49;;;;;;;;;;;;;;;12.90;nan;102432.94;4968125;28;19918;-84
2023/02/11 10:21:18;;;;;;;;;;;;;;;12.93;nan;102453.22;4964368;28;19926;-85
2023/02/11 10:23:46;;;;;;;;;;;;;;;12.91;nan;102434.56;4964722;28;19922;-85
2023/02/11 10:26:12;;;;;;;;;;;;;;;12.89;nan;102430.47;4974788;28;19953;-85
2023/02/11 10:28:39;;;;;;;;;;;;;;;12.88;nan;102428.81;4976011;28;20316;-84
2023/02/11 10:31:07;;;;;;;;;;;;;;;12.93;nan;102432.50;4967882;28;19922;-85
2023/02/11 10:33:45;;;;;;;;;;;;;;;12.95;nan;102430.41;4968955;28;20022;-85
2023/02/11 10:36:11;;;;;;;;;;;;;;;13.00;nan;102422.50;4974789;28;20497;-84
2023/02/11 10:38:37;;;;;;;;;;;;;;;13.07;nan;102414.34;4965748;28;19922;-85
2023/02/11 10:41:03;;;;;;;;;;;;;;;13.05;nan;102419.13;4970226;28;19926;-85
2023/02/11 10:43:29;;;;;;;;;;;;;;;13.07;nan;102435.88;4965545;28;19983;-85
2023/02/11 10:45:55;;;;;;;;;;;;;;;13.00;nan;102418.97;4976454;28;20140;-85
2023/02/11 10:48:39;;;;;;;;;;;;;;;12.96;nan;102424.00;4965401;28;19918;-84
2023/02/11 10:51:20;;;;;;;;;;;;;;;13.05;nan;102450.59;4972622;28;20016;-84
2023/02/11 10:53:47;;;;;;;;;;;;;;;12.98;nan;102451.50;4972734;28;19964;-84
2023/02/11 10:56:38;;;;;;;;;;;;;;;13.09;nan;102470.63;4970198;28;19921;-84
2023/02/11 10:59:06;;;;;;;;;;;;;;;13.15;nan;102469.75;4967166;28;20729;-84
2023/02/11 11:01:59;;;;;;;;;;;;;;;13.18;nan;102475.53;4968479;28;20311;-85
2023/02/11 11:04:24;;;;;;;;;;;;;;;13.17;nan;102473.03;4973230;28;19922;-84
2023/02/11 11:06:49;;;;;;;;;;;;;;;13.27;nan;102473.34;4968789;28;19924;-85
2023/02/11 11:09:31;;;;;;;;;;;;;;;13.24;nan;102480.00;4968349;28;19918;-84
2023/02/11 11:11:56;;;;;;;;;;;;;;;13.25;nan;102497.00;4967078;28;19953;-84
2023/02/11 11:14:27;;;;;;;;;;;;;;;13.24;nan;102500.72;4978298;28;19926;-84
2023/02/11 11:16:53;;;;;;;;;;;;;;;13.33;nan;102499.41;4970317;28;20384;-84
2023/02/11 11:19:23;;;;;;;;;;;;;;;13.32;nan;102521.16;4971014;28;19929;-84
2023/02/11 11:21:49;;;;;;;;;;;;;;;13.35;nan;102521.53;4966781;28;19922;-84
2023/02/11 11:24:24;;;;;;;;;;;;;;;13.40;nan;102521.69;4973076;28;19922;-84
2023/02/11 11:26:51;;;;;;;;;;;;;;;13.47;nan;102527.00;4970872;28;19918;-85
2023/02/11 11:29:19;;;;;;;;;;;;;;;13.49;nan;102524.91;4967818;28;19926;-84
2023/02/11 11:31:48;;;;;;;;;;;;;;;13.51;nan;102528.22;4968901;28;19964;-84
2023/02/11 11:34:20;;;;;;;;;;;;;;;13.55;nan;102519.44;4970048;28;19925;-85
2023/02/11 11:36:45;;;;;;;;;;;;;;;13.61;nan;102526.63;4965227;28;19925;-84
2023/02/11 11:39:28;;;;;;;;;;;;;;;13.60;nan;102529.53;4966665;28;19918;-84
2023/02/11 11:42:02;;;;;;;;;;;;;;;13.62;nan;102524.75;4968648;28;19922;-85
2023/02/11 11:44:28;;;;;;;;;;;;;;;13.67;nan;102511.44;4973799;28;19936;-84
2023/02/11 11:47:14;;;;;;;;;;;;;;;13.66;nan;102507.09;4972416;28;19929;-85
2023/02/11 11:49:54;;;;;;;;;;;;;;;13.71;nan;102511.81;4965960;28;19930;-85
2023/02/11 11:52:26;;;;;;;;;;;;;;;13.70;nan;102505.59;4969663;28;19981;-85
2023/02/11 11:54:57;;;;;;;;;;;;;;;13.79;nan;102495.31;4969009;28;19948;-85
2023/02/11 11:57:26;;;;;;;;;;;;;;;13.77;nan;102489.34;4967685;28;20067;-85
2023/02/11 11:59:51;;;;;;;;;;;;;;;13.84;nan;102490.09;4967547;28;19918;-85
2023/02/11 12:02:35;;;;;;;;;;;;;;;13.95;nan;102492.00;4965606;28;20462;-85
2023/02/11 12:05:10;;;;;;;;;;;;;;;14.06;nan;102496.63;4966153;28;19948;-84
2023/02/11 12:07:39;;;;;;;;;;;;;;;14.07;nan;102490.19;4968187;28;20458;-85
2023/02/11 12:10:13;;;;;;;;;;;;;;;14.08;nan;102488.31;4967650;28;20380;-84
2023/02/11 12:12:42;;;;;;;;;;;;;;;14.12;nan;102493.00;4958999;28;20028;-84
2023/02/11 12:15:07;;;;;;;;;;;;;;;14.19;nan;102493.75;4972420;28;20468;-85
2023/02/11 12:17:45;;;;;;;;;;;;;;;14.23;nan;102485.22;4971204;28;19922;-85
2023/02/11 12:20:29;;;;;;;;;;;;;;;14.29;nan;102482.41;4962601;28;19926;-85
2023/02/11 12:23:03;;;;;;;;;;;;;;;14.33;nan;102488.97;4978077;28;19981;-84
2023/02/11 12:25:34;;;;;;;;;;;;;;;14.34;nan;102489.78;4969404;28;19926;-84
2023/02/11 12:28:06;;;;;;;;;;;;;;;14.36;nan;102490.38;4967721;28;19921;-85
2023/02/11 12:30:43;;;;;;;;;;;;;;;14.39;nan;102498.03;4968896;28;19918;-84
2023/02/11 12:33:27;;;;;;;;;;;;;;;14.39;nan;102500.72;4969336;28;20145;-84
2023/02/11 12:36:05;;;;;;;;;;;;;;;14.39;nan;102498.03;4969551;28;20376;-85
2023/02/11 12:38:34;;;;;;;;;;;;;;;14.42;nan;102497.56;4972387;28;19926;-85
2023/02/11 12:41:02;;;;;;;;;;;;;;;14.39;nan;102498.84;4966228;28;20427;-85
2023/02/11 12:43:38;;;;;;;;;;;;;;;14.40;nan;102499.66;4968599;28;19969;-84
2023/02/11 12:46:06;;;;;;;;;;;;;;;14.46;nan;102496.91;4976652;28;20446;-84
2023/02/11 12:48:50;;;;;;;;;;;;;;;14.54;nan;102484.13;4968041;28;20334;-85
2023/02/11 12:51:39;;;;;;;;;;;;;;;14.57;nan;102478.28;4965705;28;20581;-84
2023/02/11 12:54:13;;;;;;;;;;;;;;;14.60;nan;102478.63;4958318;28;19934;-84
2023/02/11 12:57:01;;;;;;;;;;;;;;;14.64;nan;102487.06;4967407;28;19997;-84
2023/02/11 12:59:38;;;;;;;;;;;;;;;14.66;nan;102488.47;4966745;28;19972;-85
2023/02/11 13:02:10;;;;;;;;;;;;;;;14.65;nan;102486.84;4966365;28;20012;-84
2023/02/11 13:04:42;;;;;;;;;;;;;;;14.63;nan;102494.34;4973177;28;20199;-84
2023/02/11 13:07:27;;;;;;;;;;;;;;;14.70;nan;102505.00;4971246;28;19922;-84